RKPK/PUS METAR and TAF weather

Enter ICAO airport designator
Station Type Date Time Source
RKPK METAR 2019/08/24 17:00 UTC NOAA

RKPK 241700Z 36005KT CAVOK 21/18 Q1012


Station Type Date Time Source
RKPK Decoded METAR 2019/08/24 17:00 UTC NOAA

Station name not available
Aug 24, 2019 - 01:00 PM EDT / 2019.08.24 1700 UTC
Wind: from the N (360 degrees) at 6 MPH (5 KT):0
Visibility: greater than 7 mile(s):0
Temperature: 69 F (21 C)
Dew Point: 64 F (18 C)
Relative Humidity: 82%
Pressure (altimeter): 29.88 in. Hg (1012 hPa)
ob: RKPK 241700Z 36005KT CAVOK 21/18 Q1012
cycle: 17

Station Type Date Time Source
RKPK TAF 2019/08/24 18:07 UTC NOAA

TAF RKPK 241700Z 2418/2524 33006KT 9999 SCT030 SCT200 TN19/2420Z TX28/2505Z
BECMG 2504/2505 21008KT
BECMG 2512/2513 33006KT

Example: see airport list